Huvudsida
METAR-TAF:

METAR-TAF

Flygplatser :

Luxemburg-Findels internationella flygplats

Luxemburg, Luxemburg

latitud: 49-37N, longitud: 006-13E, höjd: 376 m

Aktuellt väderrapport

Denna rapport gjordes för 32 minuter sedan, klockan 20:20 UTC
Vind 9 kt från ost/nordost
Temperatur 4°C
Fuktighet 81%
Tryck 1026 hPa
Sikt 10 km eller mer
Inga moln under 1 500 m eller inga cumulonimbus

METAR: ELLX 162020Z 07009KT CAVOK 04/01 Q1026 NOSIG

Tid: 21:52 (20:52 UTC)

Väderprognos

Denna rapport gjordes för 3 timmar och 52 minuter sedan, klockan 17:00 UTC
Prognos gäller från 16 kl. 18 UTC till 17 kl. 24 UTC
Vind 8 kt från ost
Sikt 10 km eller mer
Inga moln under 1 500 m eller inga cumulonimbus
Sannolikhet 30%
från 17 kl. 02 UTC till 17 kl. 08 UTC
Sikt: 3500 m
Spridda moln på en höjd av 300 ft
fuktdis
Temporärt
från 17 kl. 08 UTC till 17 kl. 16 UTC
Vind 15 kt från ost i byarna ända upp till 25 kt

TAF: ELLX 161700Z 1618/1724 08008KT CAVOK PROB30 1702/1708 3500 BR SCT003 TEMPO 1708/1716 08015G25KT

Aktuella väderrapporter och prognoser från 4000 flygplatser (METAR- och TAF-rapporter).

De tillgängliga stationerna syns som gula och röda prickar på kartan.

För musen över prickarna för att se namnen på stationerna.

Klicka sedan för att få väderrapporter och prognoser.

För att ändra kartan: Klicka på de gröna knapparna med ett svart kors på för att zooma in; den gröna knappen med ett streck på för att zooma ut; eller på de gröna pilarna för angränsande kartor.


METAR-TAF: